createdAt,value
2023-03-03T00:00:12.809Z,0.11
2023-03-03T00:02:42.354Z,0.10
2023-03-03T00:05:15.564Z,0.10
2023-03-03T00:07:45.801Z,0.04
2023-03-03T00:10:15.151Z,-0.02
2023-03-03T00:12:49.143Z,-0.01
2023-03-03T00:15:25.160Z,-0.05
2023-03-03T00:17:55.247Z,-0.07
2023-03-03T00:20:33.434Z,-0.05
2023-03-03T00:23:31.874Z,-0.06
2023-03-03T00:26:02.001Z,-0.11
2023-03-03T00:28:41.196Z,-0.16
2023-03-03T00:31:23.995Z,-0.18
2023-03-03T00:33:57.105Z,-0.15
2023-03-03T00:36:38.881Z,-0.13
2023-03-03T00:39:36.236Z,-0.19
2023-03-03T00:42:17.404Z,-0.18
2023-03-03T00:44:58.314Z,-0.21
2023-03-03T00:47:44.161Z,-0.25
2023-03-03T00:50:31.461Z,-0.31
2023-03-03T00:53:12.544Z,-0.35
2023-03-03T00:55:41.924Z,-0.38
2023-03-03T00:58:11.753Z,-0.38
2023-03-03T01:00:45.343Z,-0.33
2023-03-03T01:03:24.763Z,-0.35
2023-03-03T01:05:54.905Z,-0.39
2023-03-03T01:08:25.193Z,-0.42
2023-03-03T01:11:09.030Z,-0.46
2023-03-03T01:13:41.803Z,-0.42
2023-03-03T01:16:12.954Z,-0.48
2023-03-03T01:18:42.561Z,-0.53
2023-03-03T01:21:12.655Z,-0.49
2023-03-03T01:23:41.959Z,-0.48
2023-03-03T01:26:11.260Z,-0.48
2023-03-03T01:28:41.643Z,-0.50
2023-03-03T01:31:11.668Z,-0.55
2023-03-03T01:33:41.629Z,-0.54
2023-03-03T01:36:10.952Z,-0.54
2023-03-03T01:38:40.398Z,-0.58
2023-03-03T01:41:09.631Z,-0.62
2023-03-03T01:43:49.573Z,-0.57
2023-03-03T01:47:09.555Z,-0.58
2023-03-03T01:49:54.441Z,-0.60
2023-03-03T01:52:58.106Z,-0.58
2023-03-03T01:55:37.017Z,-0.65
2023-03-03T01:58:16.316Z,-0.69
2023-03-03T02:00:50.923Z,-0.70
2023-03-03T02:03:23.683Z,-0.72
2023-03-03T02:05:59.536Z,-0.77
2023-03-03T02:08:39.729Z,-0.79
2023-03-03T02:11:10.653Z,-0.79
2023-03-03T02:13:39.939Z,-0.78
2023-03-03T02:16:09.337Z,-0.78
2023-03-03T02:18:38.805Z,-0.83
2023-03-03T02:21:22.566Z,-0.81
2023-03-03T02:24:00.673Z,-0.79
2023-03-03T02:26:40.387Z,-0.81
2023-03-03T02:29:11.456Z,-0.77
2023-03-03T02:31:44.031Z,-0.80
2023-03-03T02:34:15.101Z,-0.78
2023-03-03T02:36:45.512Z,-0.86
2023-03-03T02:39:27.048Z,-0.88
2023-03-03T02:42:05.694Z,-0.94
2023-03-03T02:44:43.849Z,-0.99
2023-03-03T02:47:13.193Z,-0.97
2023-03-03T02:49:43.291Z,-0.99
2023-03-03T02:52:14.984Z,-1.01
2023-03-03T02:54:48.103Z,-1.00
2023-03-03T02:57:17.599Z,-1.04
2023-03-03T02:59:46.936Z,-0.97
2023-03-03T03:02:19.769Z,-0.95
2023-03-03T03:04:49.758Z,-0.96
2023-03-03T03:07:23.909Z,-1.00
2023-03-03T03:09:53.549Z,-1.06
2023-03-03T03:12:24.132Z,-1.08
2023-03-03T03:14:56.506Z,-1.08
2023-03-03T03:17:26.622Z,-1.08
2023-03-03T03:19:56.769Z,-1.07
2023-03-03T03:22:26.931Z,-1.10
2023-03-03T03:24:56.412Z,-1.14
2023-03-03T03:27:25.688Z,-1.18
2023-03-03T03:29:55.408Z,-1.25
2023-03-03T03:32:25.273Z,-1.30
2023-03-03T03:34:54.743Z,-1.32
2023-03-03T03:37:24.011Z,-1.31
2023-03-03T03:39:53.999Z,-1.30
2023-03-03T03:42:23.583Z,-1.33
2023-03-03T03:44:52.997Z,-1.38
2023-03-03T03:47:22.394Z,-1.42
2023-03-03T03:49:51.628Z,-1.46
2023-03-03T03:52:21.775Z,-1.45
2023-03-03T03:54:51.140Z,-1.49
2023-03-03T03:57:21.453Z,-1.40
2023-03-03T03:59:51.089Z,-1.40
2023-03-03T04:02:20.550Z,-1.36
2023-03-03T04:04:49.858Z,-1.37
2023-03-03T04:07:19.550Z,-1.39
2023-03-03T04:09:49.500Z,-1.41
2023-03-03T04:12:18.906Z,-1.39
2023-03-03T04:14:49.238Z,-1.42
2023-03-03T04:17:21.121Z,-1.44
2023-03-03T04:19:53.761Z,-1.45
2023-03-03T04:22:23.409Z,-1.44
2023-03-03T04:24:52.965Z,-1.44
2023-03-03T04:27:22.259Z,-1.48
2023-03-03T04:29:51.837Z,-1.55
2023-03-03T04:32:21.322Z,-1.60
2023-03-03T04:34:58.669Z,-1.63
2023-03-03T04:37:37.931Z,-1.68
2023-03-03T04:40:09.838Z,-1.66
2023-03-03T04:42:39.631Z,-1.60
2023-03-03T04:45:11.512Z,-1.56
2023-03-03T04:47:42.015Z,-1.55
2023-03-03T04:50:12.456Z,-1.53
2023-03-03T04:52:41.947Z,-1.54
2023-03-03T04:55:12.387Z,-1.59
2023-03-03T04:57:43.309Z,-1.53
2023-03-03T05:00:14.419Z,-1.48
2023-03-03T05:02:43.774Z,-1.45
2023-03-03T05:05:15.623Z,-1.43
2023-03-03T05:07:44.975Z,-1.42
2023-03-03T05:10:14.499Z,-1.41
2023-03-03T05:12:44.329Z,-1.46
2023-03-03T05:15:13.780Z,-1.53
2023-03-03T05:17:43.013Z,-1.49
2023-03-03T05:20:13.771Z,-1.48
2023-03-03T05:22:43.073Z,-1.49
2023-03-03T05:25:13.374Z,-1.49
2023-03-03T05:27:43.818Z,-1.43
2023-03-03T05:30:13.633Z,-1.40
2023-03-03T05:32:42.865Z,-1.30
2023-03-03T05:35:12.077Z,-1.27
2023-03-03T05:37:46.821Z,-1.23
2023-03-03T05:40:16.596Z,-1.20
2023-03-03T05:42:46.213Z,-1.18
2023-03-03T05:45:15.743Z,-1.16
2023-03-03T05:47:44.956Z,-1.16
2023-03-03T05:50:15.957Z,-1.13
2023-03-03T05:52:48.321Z,-1.11
2023-03-03T05:55:18.750Z,-1.06
2023-03-03T05:57:48.255Z,-1.04
2023-03-03T06:00:18.328Z,-1.04
2023-03-03T06:02:47.818Z,-1.05
2023-03-03T06:05:17.315Z,-1.01
2023-03-03T06:07:46.600Z,-0.91
2023-03-03T06:10:15.978Z,-0.81
2023-03-03T06:12:49.257Z,-0.70
2023-03-03T06:15:18.933Z,-0.56
2023-03-03T06:17:48.184Z,-0.41
2023-03-03T06:20:17.559Z,-0.31
2023-03-03T06:22:46.746Z,-0.18
2023-03-03T06:25:16.207Z,-0.07
2023-03-03T06:27:45.464Z,0.03
2023-03-03T06:30:15.161Z,0.18
2023-03-03T06:32:45.053Z,0.27
2023-03-03T06:35:14.503Z,0.33
2023-03-03T06:37:43.722Z,0.42
2023-03-03T06:40:13.650Z,0.60
2023-03-03T06:42:43.136Z,0.74
2023-03-03T06:45:13.298Z,0.94
2023-03-03T06:47:42.661Z,1.13
2023-03-03T06:50:13.091Z,1.41
2023-03-03T06:52:42.462Z,1.46
2023-03-03T06:55:23.671Z,1.44
2023-03-03T06:57:55.857Z,1.52
2023-03-03T07:00:30.725Z,1.64
2023-03-03T07:03:08.658Z,1.75
2023-03-03T07:05:38.613Z,1.86
2023-03-03T07:08:19.831Z,1.91
2023-03-03T07:10:52.653Z,1.88
2023-03-03T07:13:28.958Z,1.90
2023-03-03T07:16:09.513Z,1.85
2023-03-03T07:18:53.239Z,1.72
2023-03-03T07:21:36.393Z,1.73
2023-03-03T07:24:30.420Z,1.81
2023-03-03T07:27:23.071Z,1.88
2023-03-03T07:29:56.353Z,1.92
2023-03-03T07:32:46.923Z,1.99
2023-03-03T07:35:43.566Z,2.01
2023-03-03T07:38:40.301Z,1.97
2023-03-03T07:41:20.851Z,1.95
2023-03-03T07:43:54.922Z,1.95
2023-03-03T07:46:29.165Z,2.10
2023-03-03T07:49:00.560Z,2.32
2023-03-03T07:51:42.327Z,2.51
2023-03-03T07:54:35.824Z,2.70
2023-03-03T07:57:39.836Z,2.97
2023-03-03T08:00:16.647Z,3.23
2023-03-03T08:03:15.503Z,3.43
2023-03-03T08:05:48.272Z,3.56
2023-03-03T08:08:34.510Z,3.75
2023-03-03T08:11:05.935Z,3.91
2023-03-03T08:13:35.345Z,4.04
2023-03-03T08:16:10.684Z,4.18
2023-03-03T08:18:43.337Z,4.37
2023-03-03T08:21:20.898Z,4.43
2023-03-03T08:23:51.837Z,4.64
2023-03-03T08:26:26.097Z,4.89
2023-03-03T08:28:56.068Z,5.08
2023-03-03T08:31:40.314Z,5.34
2023-03-03T08:34:10.766Z,5.55
2023-03-03T08:36:40.022Z,5.71
2023-03-03T08:39:10.501Z,5.92
2023-03-03T08:41:43.730Z,6.10
2023-03-03T08:44:13.080Z,6.26
2023-03-03T08:46:44.130Z,6.39
2023-03-03T08:49:13.508Z,6.60
2023-03-03T08:51:42.852Z,6.78
2023-03-03T08:54:12.123Z,6.90
2023-03-03T08:56:41.485Z,7.05
2023-03-03T08:59:11.529Z,7.16
2023-03-03T09:01:41.105Z,7.31
2023-03-03T09:04:11.067Z,7.42
2023-03-03T09:06:40.559Z,7.51
2023-03-03T09:09:09.852Z,7.55
2023-03-03T09:11:39.245Z,7.64
2023-03-03T09:14:17.342Z,7.79
2023-03-03T09:16:53.535Z,7.97
2023-03-03T09:19:36.185Z,8.11
2023-03-03T09:22:25.259Z,8.24
2023-03-03T09:24:59.103Z,8.25
2023-03-03T09:27:33.929Z,8.30
2023-03-03T09:30:26.317Z,8.48
2023-03-03T09:32:58.095Z,8.58
2023-03-03T09:35:37.828Z,8.66
2023-03-03T09:38:31.083Z,8.59
2023-03-03T09:42:10.953Z,8.35
2023-03-03T09:45:13.943Z,8.24
2023-03-03T09:48:33.517Z,8.23
2023-03-03T09:51:24.384Z,8.03
2023-03-03T09:53:59.386Z,7.88
2023-03-03T09:57:07.979Z,7.66
2023-03-03T09:59:58.272Z,7.51
2023-03-03T10:02:57.799Z,7.39
2023-03-03T10:05:52.677Z,7.26
2023-03-03T10:08:36.284Z,7.35
2023-03-03T10:11:35.070Z,7.50
2023-03-03T10:14:27.669Z,7.58
2023-03-03T10:17:05.641Z,7.76
2023-03-03T10:19:44.563Z,7.85
2023-03-03T10:22:30.929Z,7.93
2023-03-03T10:25:21.594Z,8.03
2023-03-03T10:28:18.382Z,8.10
2023-03-03T10:31:10.715Z,8.19
2023-03-03T10:33:47.814Z,8.29
2023-03-03T10:36:26.110Z,8.38
2023-03-03T10:39:27.331Z,8.52
2023-03-03T10:42:02.665Z,8.60
2023-03-03T10:44:51.002Z,8.67
2023-03-03T10:47:41.458Z,8.77
2023-03-03T10:50:51.439Z,8.90
2023-03-03T10:53:59.037Z,8.99
2023-03-03T10:56:56.592Z,9.07
2023-03-03T10:59:52.411Z,9.22
2023-03-03T11:02:37.572Z,9.38
2023-03-03T11:05:43.527Z,9.59
2023-03-03T11:08:49.866Z,9.82
2023-03-03T11:11:49.111Z,10.16
2023-03-03T11:14:38.142Z,10.45
2023-03-03T11:17:16.293Z,10.68
2023-03-03T11:20:29.733Z,10.86
2023-03-03T11:23:19.459Z,10.99
2023-03-03T11:26:19.961Z,11.17
2023-03-03T11:29:14.050Z,11.31
2023-03-03T11:31:58.129Z,11.41
2023-03-03T11:34:32.903Z,11.47
2023-03-03T11:37:15.864Z,11.51
2023-03-03T11:39:45.535Z,11.55
2023-03-03T11:42:54.985Z,11.63
2023-03-03T11:45:43.819Z,11.68
2023-03-03T11:48:39.727Z,11.72
2023-03-03T11:51:34.245Z,11.76
2023-03-03T11:54:22.300Z,11.81
2023-03-03T11:57:01.951Z,11.87
2023-03-03T11:59:33.957Z,11.92
2023-03-03T12:02:44.241Z,11.94
2023-03-03T12:05:30.935Z,11.96
2023-03-03T12:08:33.473Z,12.04
2023-03-03T12:11:40.216Z,12.04
2023-03-03T12:14:26.393Z,11.98
2023-03-03T12:17:06.639Z,11.99
2023-03-03T12:20:15.096Z,12.04
2023-03-03T12:23:19.044Z,12.07
2023-03-03T12:26:45.615Z,12.08
2023-03-03T12:29:40.842Z,12.14
2023-03-03T12:32:40.127Z,12.17
2023-03-03T12:35:27.188Z,12.16
2023-03-03T12:38:28.365Z,12.19
2023-03-03T12:41:15.085Z,12.23
2023-03-03T12:44:02.260Z,12.26
2023-03-03T12:46:39.043Z,12.25
2023-03-03T12:49:08.429Z,12.28
2023-03-03T12:52:07.956Z,12.35
2023-03-03T12:55:15.314Z,12.40
2023-03-03T12:58:24.944Z,12.45
2023-03-03T13:01:12.727Z,12.47
2023-03-03T13:04:23.703Z,12.51
2023-03-03T13:07:32.626Z,12.52
2023-03-03T13:10:27.794Z,12.50
2023-03-03T13:13:23.574Z,12.52
2023-03-03T13:16:06.830Z,12.56
2023-03-03T13:19:11.857Z,12.57
2023-03-03T13:22:02.424Z,12.59
2023-03-03T13:24:46.541Z,12.60
2023-03-03T13:27:20.409Z,12.59
2023-03-03T13:30:10.393Z,12.63
2023-03-03T13:33:00.908Z,12.65
2023-03-03T13:35:51.330Z,12.69
2023-03-03T13:38:31.119Z,12.69
2023-03-03T13:41:41.084Z,12.70
2023-03-03T13:44:41.408Z,12.90
2023-03-03T13:47:44.329Z,13.67
2023-03-03T13:50:38.022Z,16.25
2023-03-03T13:53:36.305Z,18.49
2023-03-03T13:56:42.196Z,20.96
2023-03-03T13:59:35.546Z,21.68
2023-03-03T14:03:08.496Z,18.95
2023-03-03T14:05:45.352Z,17.10
2023-03-03T14:08:53.868Z,16.03
2023-03-03T14:11:43.067Z,15.31
2023-03-03T14:14:49.552Z,14.80
2023-03-03T14:17:32.129Z,14.38
2023-03-03T14:20:16.103Z,14.09
2023-03-03T14:23:07.999Z,13.82
2023-03-03T14:26:01.311Z,13.57
2023-03-03T14:28:41.010Z,13.37
2023-03-03T14:31:18.080Z,13.18
2023-03-03T14:34:02.252Z,13.04
2023-03-03T14:36:42.144Z,12.95
2023-03-03T14:39:34.216Z,12.80
2023-03-03T14:42:35.809Z,12.77
2023-03-03T14:45:40.273Z,12.71
2023-03-03T14:48:21.343Z,12.62
2023-03-03T14:50:59.132Z,12.56
2023-03-03T14:53:35.670Z,12.49
2023-03-03T14:56:27.362Z,12.43
2023-03-03T14:59:21.814Z,12.34
2023-03-03T15:02:29.665Z,12.28
2023-03-03T15:05:18.409Z,12.20
2023-03-03T15:08:15.040Z,12.13
2023-03-03T15:10:46.174Z,12.06
2023-03-03T15:13:21.564Z,12.01
2023-03-03T15:16:00.287Z,11.97
2023-03-03T15:18:33.272Z,11.90
2023-03-03T15:21:16.999Z,11.83
2023-03-03T15:24:05.425Z,11.80
2023-03-03T15:26:55.010Z,11.75
2023-03-03T15:29:42.136Z,11.69
2023-03-03T15:32:45.319Z,11.58
2023-03-03T15:35:45.982Z,11.55
2023-03-03T15:38:30.255Z,11.47
2023-03-03T15:41:30.587Z,11.35
2023-03-03T15:44:51.913Z,11.24
2023-03-03T15:47:45.318Z,11.12
2023-03-03T15:50:31.223Z,11.02
2023-03-03T15:53:27.947Z,10.97
2023-03-03T15:56:31.510Z,10.89
2023-03-03T15:59:16.067Z,10.79
2023-03-03T16:02:25.034Z,10.64
2023-03-03T16:05:13.275Z,10.57
2023-03-03T16:08:14.381Z,10.47
2023-03-03T16:10:54.219Z,10.36
2023-03-03T16:13:47.395Z,10.29
2023-03-03T16:16:55.910Z,10.15
2023-03-03T16:20:00.651Z,10.03
2023-03-03T16:22:51.700Z,9.93
2023-03-03T16:25:31.774Z,9.83
2023-03-03T16:28:29.859Z,9.75
2023-03-03T16:31:18.730Z,9.66
2023-03-03T16:34:06.568Z,9.54
2023-03-03T16:37:12.008Z,9.31
2023-03-03T16:40:10.432Z,9.16
2023-03-03T16:42:39.712Z,8.99
2023-03-03T16:45:42.008Z,8.86
2023-03-03T16:48:54.689Z,8.72
2023-03-03T16:51:59.474Z,8.68
2023-03-03T16:54:58.615Z,8.64
2023-03-03T16:57:36.955Z,8.53
2023-03-03T17:00:27.843Z,8.45
2023-03-03T17:03:09.443Z,8.52
2023-03-03T17:06:00.495Z,8.46
2023-03-03T17:08:53.509Z,8.44
2023-03-03T17:11:46.367Z,8.30
2023-03-03T17:14:25.047Z,8.16
2023-03-03T17:16:58.958Z,8.07
2023-03-03T17:19:57.391Z,7.90
2023-03-03T17:23:08.318Z,7.66
2023-03-03T17:26:05.250Z,7.41
2023-03-03T17:28:54.253Z,7.27
2023-03-03T17:31:40.381Z,7.10
2023-03-03T17:34:19.731Z,6.93
2023-03-03T17:37:15.249Z,6.80
2023-03-03T17:40:16.812Z,6.69
2023-03-03T17:43:03.821Z,6.55
2023-03-03T17:45:40.916Z,6.41
2023-03-03T17:48:23.915Z,6.32
2023-03-03T17:51:24.791Z,6.16
2023-03-03T17:54:09.216Z,6.03
2023-03-03T17:56:56.398Z,5.91
2023-03-03T17:59:50.897Z,5.80
2023-03-03T18:02:48.853Z,5.68
2023-03-03T18:05:39.665Z,5.54
2023-03-03T18:08:33.087Z,5.46
2023-03-03T18:11:53.591Z,5.37
2023-03-03T18:14:34.546Z,5.23
2023-03-03T18:17:53.286Z,5.07
2023-03-03T18:20:43.371Z,4.97
2023-03-03T18:23:34.089Z,4.88
2023-03-03T18:26:33.729Z,4.86
2023-03-03T18:29:28.168Z,4.77
2023-03-03T18:31:57.763Z,4.68
2023-03-03T18:34:42.718Z,4.57
2023-03-03T18:37:30.431Z,4.50
2023-03-03T18:40:02.583Z,4.43
2023-03-03T18:42:40.369Z,4.29
2023-03-03T18:45:19.391Z,4.26
2023-03-03T18:48:13.890Z,4.22
2023-03-03T18:50:44.557Z,4.23
2023-03-03T18:53:13.757Z,4.18
2023-03-03T18:55:55.472Z,4.12
2023-03-03T18:58:34.873Z,4.00
2023-03-03T19:01:32.075Z,3.97
2023-03-03T19:04:22.440Z,3.98
2023-03-03T19:07:08.567Z,3.93
2023-03-03T19:10:05.407Z,3.84
2023-03-03T19:12:57.735Z,3.80
2023-03-03T19:15:30.255Z,3.82
2023-03-03T19:18:13.546Z,3.75
2023-03-03T19:20:49.092Z,3.72
2023-03-03T19:23:47.493Z,3.74
2023-03-03T19:26:25.745Z,3.70
2023-03-03T19:29:26.035Z,3.68
2023-03-03T19:32:14.009Z,3.63
2023-03-03T19:34:50.575Z,3.54
2023-03-03T19:37:58.262Z,3.45
2023-03-03T19:40:58.222Z,3.33
2023-03-03T19:43:58.400Z,3.18
2023-03-03T19:46:55.071Z,3.13
2023-03-03T19:50:05.277Z,3.11
2023-03-03T19:52:43.780Z,3.07
2023-03-03T19:55:35.574Z,3.02
2023-03-03T19:58:45.990Z,2.91
2023-03-03T20:01:59.787Z,2.80
2023-03-03T20:04:56.230Z,2.72
2023-03-03T20:07:50.622Z,2.60
2023-03-03T20:11:07.662Z,2.58
2023-03-03T20:14:02.852Z,2.50
2023-03-03T20:16:42.869Z,2.41
2023-03-03T20:19:39.727Z,2.39
2023-03-03T20:22:30.100Z,2.34
2023-03-03T20:25:05.613Z,2.23
2023-03-03T20:27:53.800Z,2.18
2023-03-03T20:30:46.666Z,2.16
2023-03-03T20:33:48.314Z,2.12
2023-03-03T20:36:58.761Z,2.10
2023-03-03T20:40:05.869Z,2.09
2023-03-03T20:42:44.604Z,2.05
2023-03-03T20:45:30.303Z,1.98
2023-03-03T20:48:14.021Z,1.94
2023-03-03T20:51:00.016Z,1.92
2023-03-03T20:53:47.218Z,1.94
2023-03-03T20:56:34.887Z,1.93
2023-03-03T20:59:23.933Z,1.84
2023-03-03T21:02:24.166Z,1.78
2023-03-03T21:05:15.061Z,1.75
2023-03-03T21:07:56.480Z,1.66
2023-03-03T21:10:30.390Z,1.59
2023-03-03T21:13:44.327Z,1.65
2023-03-03T21:16:25.534Z,1.67
2023-03-03T21:19:11.901Z,1.60
2023-03-03T21:21:45.306Z,1.58
2023-03-03T21:24:19.704Z,1.57
2023-03-03T21:26:53.851Z,1.56
2023-03-03T21:29:28.826Z,1.54
2023-03-03T21:32:04.391Z,1.54
2023-03-03T21:34:40.451Z,1.52
2023-03-03T21:37:47.918Z,1.48
2023-03-03T21:40:25.505Z,1.44
2023-03-03T21:43:00.037Z,1.42
2023-03-03T21:45:30.262Z,1.41
2023-03-03T21:48:02.475Z,1.42
2023-03-03T21:50:32.856Z,1.42
2023-03-03T21:53:02.150Z,1.40
2023-03-03T21:55:31.387Z,1.38
2023-03-03T21:58:00.583Z,1.34
2023-03-03T22:00:29.827Z,1.30
2023-03-03T22:02:59.438Z,1.29
2023-03-03T22:05:28.654Z,1.26
2023-03-03T22:07:57.927Z,1.21
2023-03-03T22:10:27.284Z,1.16
2023-03-03T22:12:56.755Z,1.11
2023-03-03T22:15:26.560Z,1.05
2023-03-03T22:17:56.432Z,0.99
2023-03-03T22:20:25.714Z,0.97
2023-03-03T22:22:54.968Z,0.94
2023-03-03T22:25:24.412Z,0.87
2023-03-03T22:27:53.618Z,0.83
2023-03-03T22:30:23.010Z,0.80
2023-03-03T22:32:54.695Z,0.82
2023-03-03T22:35:24.204Z,0.79
2023-03-03T22:37:53.536Z,0.74
2023-03-03T22:40:22.869Z,0.72
2023-03-03T22:42:52.275Z,0.65
2023-03-03T22:45:21.554Z,0.61
2023-03-03T22:47:50.883Z,0.56
2023-03-03T22:50:20.354Z,0.52
2023-03-03T22:52:49.671Z,0.50
2023-03-03T22:55:19.158Z,0.46
2023-03-03T22:57:48.530Z,0.45
2023-03-03T23:00:18.452Z,0.42
2023-03-03T23:02:47.677Z,0.39
2023-03-03T23:05:17.185Z,0.38
2023-03-03T23:07:46.690Z,0.33
2023-03-03T23:10:16.083Z,0.26
2023-03-03T23:12:45.443Z,0.28
2023-03-03T23:15:15.145Z,0.23
2023-03-03T23:17:46.105Z,0.21
2023-03-03T23:20:22.829Z,0.23
2023-03-03T23:22:52.733Z,0.16
2023-03-03T23:25:25.886Z,0.18
2023-03-03T23:27:56.627Z,0.16
2023-03-03T23:30:26.481Z,0.12
2023-03-03T23:32:55.784Z,0.10
2023-03-03T23:35:25.070Z,0.08
2023-03-03T23:37:54.351Z,0.03
2023-03-03T23:40:23.632Z,-0.05
2023-03-03T23:42:52.920Z,-0.05
2023-03-03T23:45:22.218Z,-0.05
2023-03-03T23:47:51.507Z,-0.09
2023-03-03T23:50:20.878Z,-0.08
2023-03-03T23:52:50.256Z,-0.09
2023-03-03T23:55:19.738Z,-0.17
2023-03-03T23:57:48.996Z,-0.20
